Latest Weather Observations for Brisbane Airport

IDQ60901

Issued at 7:01 pm EST Saturday 30 July 2016 (issued every 10 minutes, with the page automatically refreshed every 10 minutes)

About weather observations | Map of Brisbane area stations | Latest observations for Brisbane area | Other Formats
Station Details ID: 040842 Name: BRISBANE AERO Lat: -27.39 Lon: 153.13 Height: 4.51 m
Data from the previous 72 hours. | See also: Recent months at Brisbane Airport
Date/Time
EST
Temp
°C
App
Temp
°C
Dew
Point
°C
Rel
Hum
%
Delta-T
°C
Wind Press
QNH
hPa
Press
MSL
hPa
Rain since
9am
mm
Dir  Spd
km/h
Gust
km/h
Spd
kts
Gust
kts
30/06:30pm 16.0 14.9 10.5 70 2.9 ESE 7 9 4 5 1019.6 1019.5 0.0
30/06:00pm 16.4 15.0 9.7 64 3.5 ESE 7 11 4 6 1019.3 1019.2 0.0
30/05:30pm 17.2 15.5 8.4 56 4.5 E 7 11 4 6 1018.9 1018.8 0.0
30/05:00pm 18.2 15.7 6.7 47 5.7 ESE 9 13 5 7 1018.7 1018.6 0.0
30/04:30pm 19.1 16.3 5.1 39 6.8 ESE 9 15 5 8 1018.6 1018.5 0.0
30/04:00pm 19.9 15.9 3.0 32 7.9 E 13 17 7 9 1018.3 1018.2 0.0
30/03:30pm 20.7 17.0 4.3 34 7.9 ENE 13 19 7 10 1018.2 1018.1 0.0
30/03:00pm 21.1 17.0 4.1 32 8.2 NE 15 19 8 10 1018.2 1018.1 0.0
30/02:30pm 21.0 17.3 4.5 34 8.0 NE 13 17 7 9 1018.4 1018.3 0.0
30/02:00pm 21.0 16.9 4.5 34 8.0 NNE 15 19 8 10 1018.5 1018.4 0.0
30/01:30pm 21.0 17.1 5.4 36 7.7 NE 15 20 8 11 1018.6 1018.5 0.0
30/01:00pm 20.7 17.7 7.7 43 6.7 NE 13 19 7 10 1019.0 1018.9 0.0
30/12:30pm 20.8 17.4 5.7 37 7.5 NNE 13 19 7 10 1019.3 1019.2 0.0
30/12:00pm 20.2 17.8 4.4 35 7.6 NNW 6 9 3 5 1019.8 1019.7 0.0
30/11:30am 19.7 17.0 3.9 35 7.5 WSW 7 15 4 8 1020.4 1020.3 0.0
30/11:00am 19.1 16.2 4.4 38 7.0 SSW 9 15 5 8 1020.8 1020.7 0.0
30/10:30am 18.8 16.1 5.4 41 6.5 WSW 9 15 5 8 1021.0 1020.9 0.0
30/10:00am 17.8 15.2 6.2 46 5.7 SW 9 13 5 7 1021.2 1021.1 0.0
30/09:30am 16.1 13.7 6.9 54 4.5 SW 9 11 5 6 1021.4 1021.3 0.0
30/09:00am 14.3 12.3 7.1 62 3.5 SSW 7 11 4 6 1021.6 1021.5 0.0
30/08:30am 13.1 11.3 8.0 71 2.5 SW 7 11 4 6 1021.5 1021.4 0.0
30/08:00am 11.8 10.0 7.9 77 1.9 SSW 7 9 4 5 1021.2 1021.1 0.0
30/07:30am 10.5 9.9 7.3 80 1.5 CALM 0 6 0 3 1020.9 1020.8 0.0
30/07:00am 8.8 6.2 5.9 82 1.3 SSW 9 13 5 7 1020.7 1020.6 0.0
30/06:30am 9.4 6.4 5.9 79 1.6 SSW 11 13 6 7 1020.4 1020.3 0.0
30/06:00am 8.8 5.9 6.6 86 1.0 SSW 11 13 6 7 1020.1 1020.0 0.0
30/05:30am 8.8 6.5 7.5 91 0.6 SSW 9 11 5 6 1019.9 1019.8 0.0
30/05:00am 9.0 6.7 7.3 89 0.8 SW 9 11 5 6 1019.7 1019.6 0.0
30/04:30am 8.9 8.5 8.1 95 0.4 CALM 0 0 0 0 1019.5 1019.4 0.0
30/04:00am 9.4 9.0 8.4 93 0.5 CALM 0 0 0 0 1019.5 1019.4 0.0
30/03:30am 9.9 9.5 8.2 89 0.8 CALM 0 0 0 0 1019.6 1019.5 0.0
30/03:00am 9.7 9.4 8.7 93 0.5 CALM 0 0 0 0 1019.8 1019.7 0.0
30/02:30am 10.5 10.3 8.9 90 0.8 CALM 0 0 0 0 1019.9 1019.8 0.0
30/02:00am 11.2 9.9 9.2 87 1.0 W 6 7 3 4 1020.0 1019.9 0.0
30/01:30am 11.8 11.3 9.4 85 1.2 WNW 2 13 1 7 1020.2 1020.1 0.0
30/01:00am 11.3 11.2 9.3 87 1.0 CALM 0 0 0 0 1020.6 1020.5 0.0
30/12:30am 11.9 10.1 9.3 84 1.3 SW 9 15 5 8 1020.8 1020.7 0.0
30/12:00am 11.4 10.1 9.2 86 1.1 NNW 6 9 3 5 1020.7 1020.6 0.0
 
Date/Time
EST
Temp
°C
App
Temp
°C
Dew
Point
°C
Rel
Hum
%
Delta-T
°C
Wind Press
QNH
hPa
Press
MSL
hPa
Rain since
9am
mm
Dir  Spd
km/h
Gust
km/h
Spd
kts
Gust
kts
29/11:30pm 12.7 11.4 9.8 82 1.5 WNW 7 13 4 7 1020.9 1020.8 0.0
29/11:00pm 12.8 11.4 9.7 81 1.6 WNW 7 13 4 7 1021.0 1020.9 0.0
29/10:30pm 13.8 13.5 10.1 78 1.9 W 2 13 1 7 1021.1 1021.0 0.0
29/10:00pm 12.9 11.6 9.8 81 1.6 NW 7 9 4 5 1021.0 1020.9 0.0
29/09:30pm 14.1 12.4 10.0 76 2.1 NW 9 11 5 6 1021.1 1021.0 0.0
29/09:00pm 14.2 12.4 10.8 80 1.8 NW 11 13 6 7 1021.0 1020.9 0.0
29/08:30pm 15.9 14.1 10.8 71 2.7 NW 11 17 6 9 1020.9 1020.8 0.0
29/08:00pm 14.2 12.4 11.0 81 1.7 NW 11 11 6 6 1020.8 1020.7 0.0
29/07:30pm 15.7 14.9 13.0 84 1.5 NNW 9 19 5 10 1020.7 1020.6 0.0
29/07:00pm 14.8 14.3 12.6 87 1.2 NNW 7 9 4 5 1020.5 1020.4 0.0
29/06:30pm 15.5 15.2 12.6 83 1.6 NNE 6 7 3 4 1020.3 1020.2 0.0
29/06:00pm 14.8 13.8 11.0 78 2.0 NE 7 7 4 4 1020.0 1019.9 0.0
29/05:30pm 16.5 15.3 10.2 66 3.3 NE 7 7 4 4 1019.7 1019.6 0.0
29/05:00pm 17.9 15.7 9.5 58 4.4 NE 11 13 6 7 1019.6 1019.5 0.0
29/04:30pm 19.5 17.1 8.5 49 5.7 NE 11 15 6 8 1019.6 1019.5 0.0
29/04:00pm 20.4 17.4 7.5 43 6.6 NE 13 17 7 9 1019.5 1019.4 0.0
29/03:30pm 21.0 17.7 7.9 43 6.8 NE 15 17 8 9 1019.6 1019.5 0.0
29/03:00pm 21.0 17.2 6.0 37 7.5 NE 15 19 8 10 1019.7 1019.6 0.0
29/02:30pm 21.3 17.1 5.9 36 7.7 NE 17 19 9 10 1019.8 1019.7 0.0
29/02:00pm 21.9 18.2 6.2 36 7.9 NE 15 19 8 10 1020.2 1020.1 0.0
29/01:30pm 21.4 17.9 7.1 39 7.3 NE 15 19 8 10 1020.5 1020.4 0.0
29/01:00pm 21.6 18.4 6.9 38 7.5 NNE 13 20 7 11 1020.7 1020.6 0.0
29/12:30pm 21.5 18.7 7.0 39 7.4 NE 11 17 6 9 1021.2 1021.1 0.0
29/12:00pm 21.3 18.9 7.0 39 7.3 NNW 9 15 5 8 1021.9 1021.8 0.0
29/11:30am 20.4 17.4 5.9 38 7.2 WSW 11 19 6 10 1022.6 1022.5 0.0
29/11:00am 20.7 17.3 6.0 38 7.3 SSW 13 17 7 9 1023.0 1022.9 0.0
29/10:30am 19.6 15.4 5.5 39 6.9 SW 17 20 9 11 1023.2 1023.1 0.0
29/10:00am 18.4 14.2 5.9 44 6.1 SSW 17 22 9 12 1023.7 1023.6 0.0
29/09:30am 17.2 13.0 5.8 47 5.5 SSW 17 22 9 12 1023.9 1023.8 0.0
29/09:00am 15.5 11.8 6.1 53 4.5 SSW 15 19 8 10 1023.9 1023.8 0.0
29/08:30am 13.7 9.7 6.8 63 3.3 SW 17 19 9 10 1023.8 1023.7 0.0
29/08:00am 11.8 8.1 6.5 70 2.5 SSW 15 19 8 10 1023.7 1023.6 0.0
29/07:30am 10.4 7.1 6.5 77 1.8 SSW 13 17 7 9 1023.7 1023.6 0.0
29/07:00am 9.7 7.0 5.5 75 1.9 SSW 9 13 5 7 1023.6 1023.5 0.0
29/06:30am 9.2 5.8 6.1 81 1.4 SW 13 17 7 9 1023.4 1023.3 0.0
29/06:00am 8.2 5.2 6.2 87 0.9 SW 11 13 6 7 1023.1 1023.0 0.0
29/05:30am 9.7 6.5 6.7 81 1.4 SSW 13 17 7 9 1022.7 1022.6 0.0
29/05:00am 10.3 7.2 7.1 80 1.5 SSW 13 15 7 8 1022.5 1022.4 0.0
29/04:30am 9.5 6.3 6.9 84 1.2 SSW 13 17 7 9 1022.4 1022.3 0.0
29/04:00am 10.6 7.1 7.2 79 1.6 SSW 15 17 8 9 1022.2 1022.1 0.0
29/03:30am 9.8 6.3 7.3 84 1.2 SSW 15 19 8 10 1022.2 1022.1 0.0
29/03:00am 9.8 6.4 7.5 85 1.1 SSW 15 19 8 10 1022.3 1022.2 0.0
29/02:30am 11.0 7.8 8.3 83 1.3 SSW 15 19 8 10 1022.4 1022.3 0.0
29/02:00am 10.4 7.2 8.3 87 1.0 SSW 15 17 8 9 1022.5 1022.4 0.0
29/01:30am 10.1 8.1 8.7 91 0.7 SSW 9 11 5 6 1022.5 1022.4 0.0
29/01:00am 10.7 8.3 8.7 87 1.0 SW 11 11 6 6 1022.4 1022.3 0.0
29/12:30am 11.2 9.3 9.0 86 1.1 SW 9 11 5 6 1022.5 1022.4 0.0
29/12:00am 11.3 9.4 8.9 85 1.2 SW 9 9 5 5 1022.8 1022.7 0.0
 
Date/Time
EST
Temp
°C
App
Temp
°C
Dew
Point
°C
Rel
Hum
%
Delta-T
°C
Wind Press
QNH
hPa
Press
MSL
hPa
Rain since
9am
mm
Dir  Spd
km/h
Gust
km/h
Spd
kts
Gust
kts
28/11:30pm 12.4 10.6 9.4 82 1.5 SSW 9 11 5 6 1022.8 1022.7 0.0
28/11:00pm 12.4 10.4 8.8 79 1.8 SSW 9 9 5 5 1023.0 1022.9 0.0
28/10:30pm 13.2 11.7 9.2 77 2.0 SW 7 9 4 5 1023.2 1023.1 0.0
28/10:00pm 13.0 11.3 9.7 80 1.7 WSW 9 13 5 7 1023.5 1023.4 0.0
28/09:30pm 13.6 12.3 10.1 79 1.8 WSW 7 7 4 4 1023.4 1023.3 0.0
28/09:00pm 13.8 14.0 10.5 80 1.7 CALM 0 0 0 0 1023.4 1023.3 0.0
28/08:30pm 14.7 13.8 10.7 77 2.1 WSW 6 9 3 5 1023.5 1023.4 0.0
28/08:00pm 14.3 14.8 11.5 83 1.5 CALM 0 0 0 0 1023.6 1023.5 0.0
28/07:30pm 14.8 15.2 11.4 80 1.8 CALM 0 0 0 0 1023.6 1023.5 0.0
28/07:00pm 16.5 16.4 12.1 75 2.4 E 4 7 2 4 1023.4 1023.3 0.0
28/06:30pm 17.1 16.3 11.6 70 3.0 E 7 11 4 6 1023.1 1023.0 0.0
28/06:00pm 17.3 15.9 11.0 66 3.4 E 9 11 5 6 1022.7 1022.6 0.0
28/05:30pm 17.7 16.5 10.4 62 3.9 E 7 11 4 6 1022.5 1022.4 0.0
28/05:00pm 18.5 17.4 10.5 59 4.3 E 7 9 4 5 1022.3 1022.2 0.0
28/04:30pm 19.4 17.3 8.4 49 5.7 ESE 9 13 5 7 1022.2 1022.1 0.0
28/04:00pm 19.8 17.4 6.9 43 6.5 SE 9 15 5 8 1021.9 1021.8 0.0
28/03:30pm 19.5 16.8 7.5 45 6.1 E 11 15 6 8 1021.9 1021.8 0.0
28/03:00pm 19.9 17.1 6.8 42 6.6 E 11 15 6 8 1021.9 1021.8 0.0
28/02:30pm 20.4 16.9 5.6 38 7.3 NNE 13 17 7 9 1021.8 1021.7 0.0
28/02:00pm 21.0 17.6 6.0 37 7.5 N 13 17 7 9 1021.8 1021.7 0.0
28/01:30pm 21.0 18.4 6.2 38 7.4 SW 9 13 5 7 1022.0 1021.9 0.0
28/01:00pm 20.2 17.5 5.6 38 7.2 SSW 9 15 5 8 1022.4 1022.3 0.0
28/12:30pm 20.2 17.9 5.6 38 7.2 S 7 15 4 8 1022.7 1022.6 0.0
28/12:00pm 19.8 16.0 4.0 35 7.5 SSW 13 19 7 10 1023.3 1023.2 0.0
28/11:30am 19.9 16.5 3.9 34 7.6 SSW 11 19 6 10 1023.6 1023.5 0.0
28/11:00am 18.7 14.8 3.2 35 7.2 SW 13 20 7 11 1024.0 1023.9 0.0
28/10:30am 17.9 13.0 2.2 35 7.1 SW 17 22 9 12 1024.3 1024.2 0.0
28/10:00am 17.4 12.2 2.3 36 6.8 SSW 19 28 10 15 1024.4 1024.3 0.0
28/09:30am 16.9 11.2 2.8 39 6.4 SW 22 28 12 15 1024.4 1024.3 0.0
28/09:00am 15.5 9.1 3.4 44 5.5 SSW 26 32 14 17 1024.2 1024.1 0.0
28/08:30am 14.4 9.5 4.1 50 4.7 SW 19 26 10 14 1024.1 1024.0 0.0
28/08:00am 12.3 8.8 5.4 63 3.2 SSW 13 17 7 9 1023.8 1023.7 0.0
28/07:30am 10.4 7.1 4.6 67 2.6 SSW 11 15 6 8 1023.2 1023.1 0.0
28/07:00am 9.8 5.9 3.3 64 2.8 SSW 13 17 7 9 1022.9 1022.8 0.0
28/06:30am 8.0 3.7 3.5 73 1.9 SSW 15 17 8 9 1022.7 1022.6 0.0
28/06:00am 7.4 3.1 3.4 76 1.7 SSW 15 17 8 9 1022.2 1022.1 0.0
28/05:30am 9.5 5.9 3.2 65 2.7 SSW 11 13 6 7 1021.9 1021.8 0.0
28/05:00am 9.0 5.5 3.7 69 2.3 SSW 11 15 6 8 1021.5 1021.4 0.0
28/04:30am 8.8 5.2 3.2 68 2.4 SSW 11 13 6 7 1021.1 1021.0 0.0
28/04:00am 10.1 7.0 3.4 63 2.9 SSW 9 9 5 5 1021.3 1021.2 0.0
28/03:30am 9.6 6.1 3.6 66 2.6 SSW 11 13 6 7 1021.3 1021.2 0.0
28/03:00am 7.9 3.7 3.9 76 1.7 SW 15 17 8 9 1021.3 1021.2 0.0
28/02:30am 8.1 4.4 4.4 77 1.6 SW 13 15 7 8 1021.5 1021.4 0.0
28/02:00am 7.4 3.2 3.9 78 1.5 SW 15 17 8 9 1021.5 1021.4 0.0
28/01:30am 8.9 5.1 4.1 72 2.1 SSW 13 15 7 8 1021.8 1021.7 0.0
28/01:00am 8.5 5.1 4.1 74 1.9 SSW 11 13 6 7 1021.8 1021.7 0.0
28/12:30am 9.0 5.9 3.7 69 2.3 SW 9 13 5 7 1021.8 1021.7 0.0
28/12:00am 10.1 8.2 4.7 69 2.4 SSW 4 9 2 5 1021.5 1021.4 0.0
 
Date/Time
EST
Temp
°C
App
Temp
°C
Dew
Point
°C
Rel
Hum
%
Delta-T
°C
Wind Press
QNH
hPa
Press
MSL
hPa
Rain since
9am
mm
Dir  Spd
km/h
Gust
km/h
Spd
kts
Gust
kts
27/11:30pm 10.0 8.7 4.1 67 2.6 CALM 0 0 0 0 1021.5 1021.4 0.0
27/11:00pm 10.7 8.3 4.4 65 2.8 SSW 6 9 3 5 1021.3 1021.2 0.0
27/10:30pm 11.1 8.5 4.1 62 3.1 SSW 7 11 4 6 1021.2 1021.1 0.0
27/10:00pm 11.5 9.0 4.6 62 3.1 S 7 9 4 5 1021.2 1021.1 0.0
27/09:30pm 12.4 10.4 4.2 57 3.7 SW 4 9 2 5 1021.0 1020.9 0.0
27/09:00pm 11.1 10.0 4.9 65 2.8 CALM 0 0 0 0 1020.7 1020.6 0.0
27/08:30pm 12.9 9.8 3.8 54 4.1 SSW 9 9 5 5 1020.3 1020.2 0.0
27/08:00pm 12.1 10.1 4.6 60 3.4 NW 4 9 2 5 1019.8 1019.7 0.0
27/07:30pm 12.4 10.0 4.2 57 3.7 WNW 6 7 3 4 1019.3 1019.2 0.0

Latest Capital City Observations: Canberra | Sydney | Melbourne | Brisbane | Adelaide | Perth | Hobart | Darwin

Other Formats:

Comma delimited format used in spreadsheet applications
http://www.bom.gov.au/fwo/IDQ60901/IDQ60901.94578.axf

JavaScript Object Notation format (JSON) in row-major order
http://www.bom.gov.au/fwo/IDQ60901/IDQ60901.94578.json